sensor_id;sensor_type;location;lat;lon;timestamp;temperature;humidity
30063;DHT22;16889;67.864;24.990;2022-09-01T00:02:48;6.30;99.90
30063;DHT22;16889;67.864;24.990;2022-09-01T00:07:35;6.20;99.90
30063;DHT22;16889;67.864;24.990;2022-09-01T00:12:21;6.20;99.90
30063;DHT22;16889;67.864;24.990;2022-09-01T00:17:11;6.10;99.90
30063;DHT22;16889;67.864;24.990;2022-09-01T00:21:57;6.00;99.90
30063;DHT22;16889;67.864;24.990;2022-09-01T00:26:43;6.00;99.90
30063;DHT22;16889;67.864;24.990;2022-09-01T00:31:29;6.00;99.90
30063;DHT22;16889;67.864;24.990;2022-09-01T00:36:16;5.90;99.90
30063;DHT22;16889;67.864;24.990;2022-09-01T00:41:04;5.90;99.90
30063;DHT22;16889;67.864;24.990;2022-09-01T00:45:51;5.90;99.90
30063;DHT22;16889;67.864;24.990;2022-09-01T00:50:37;5.90;99.90
30063;DHT22;16889;67.864;24.990;2022-09-01T00:55:30;5.90;99.90
30063;DHT22;16889;67.864;24.990;2022-09-01T01:00:23;5.90;99.90
30063;DHT22;16889;67.864;24.990;2022-09-01T01:05:11;6.00;99.90
30063;DHT22;16889;67.864;24.990;2022-09-01T01:09:57;5.90;99.90
30063;DHT22;16889;67.864;24.990;2022-09-01T01:14:48;5.90;99.90
30063;DHT22;16889;67.864;24.990;2022-09-01T01:19:47;5.90;99.90
30063;DHT22;16889;67.864;24.990;2022-09-01T01:24:53;5.80;99.90
30063;DHT22;16889;67.864;24.990;2022-09-01T01:29:40;5.80;99.90
30063;DHT22;16889;67.864;24.990;2022-09-01T01:34:26;5.70;99.90
30063;DHT22;16889;67.864;24.990;2022-09-01T01:39:18;5.50;99.90
30063;DHT22;16889;67.864;24.990;2022-09-01T01:44:05;5.80;99.90
30063;DHT22;16889;67.864;24.990;2022-09-01T01:48:52;5.60;99.90
30063;DHT22;16889;67.864;24.990;2022-09-01T01:53:38;5.60;99.90
30063;DHT22;16889;67.864;24.990;2022-09-01T01:58:24;5.70;99.90
30063;DHT22;16889;67.864;24.990;2022-09-01T02:03:11;5.70;99.90
30063;DHT22;16889;67.864;24.990;2022-09-01T02:08:03;5.60;99.90
30063;DHT22;16889;67.864;24.990;2022-09-01T02:12:49;5.60;99.90
30063;DHT22;16889;67.864;24.990;2022-09-01T02:17:36;5.30;99.90
30063;DHT22;16889;67.864;24.990;2022-09-01T02:22:24;5.30;99.90
30063;DHT22;16889;67.864;24.990;2022-09-01T02:27:10;5.30;99.90
30063;DHT22;16889;67.864;24.990;2022-09-01T02:31:56;5.20;99.90
30063;DHT22;16889;67.864;24.990;2022-09-01T02:36:49;5.10;99.90
30063;DHT22;16889;67.864;24.990;2022-09-01T02:41:35;5.10;99.90
30063;DHT22;16889;67.864;24.990;2022-09-01T02:46:21;5.20;99.90
30063;DHT22;16889;67.864;24.990;2022-09-01T02:51:14;5.20;99.90
30063;DHT22;16889;67.864;24.990;2022-09-01T02:56:02;5.00;99.90
30063;DHT22;16889;67.864;24.990;2022-09-01T03:00:52;5.00;99.90
30063;DHT22;16889;67.864;24.990;2022-09-01T03:05:38;4.80;99.90
30063;DHT22;16889;67.864;24.990;2022-09-01T03:10:27;4.70;99.90
30063;DHT22;16889;67.864;24.990;2022-09-01T03:15:17;4.70;99.90
30063;DHT22;16889;67.864;24.990;2022-09-01T03:20:03;4.60;99.90
30063;DHT22;16889;67.864;24.990;2022-09-01T03:24:49;4.60;99.90
30063;DHT22;16889;67.864;24.990;2022-09-01T03:29:35;4.60;99.90
30063;DHT22;16889;67.864;24.990;2022-09-01T03:34:22;4.50;99.90
30063;DHT22;16889;67.864;24.990;2022-09-01T03:39:08;4.50;99.90
30063;DHT22;16889;67.864;24.990;2022-09-01T03:43:55;4.50;99.90
30063;DHT22;16889;67.864;24.990;2022-09-01T03:48:42;4.50;99.90
30063;DHT22;16889;67.864;24.990;2022-09-01T03:53:32;4.50;99.90
30063;DHT22;16889;67.864;24.990;2022-09-01T03:58:19;4.70;99.90
30063;DHT22;16889;67.864;24.990;2022-09-01T04:03:08;4.60;99.90
30063;DHT22;16889;67.864;24.990;2022-09-01T04:07:56;4.80;99.90
30063;DHT22;16889;67.864;24.990;2022-09-01T04:12:44;5.00;99.90
30063;DHT22;16889;67.864;24.990;2022-09-01T04:17:30;5.10;99.90
30063;DHT22;16889;67.864;24.990;2022-09-01T04:22:34;5.30;99.90
30063;DHT22;16889;67.864;24.990;2022-09-01T04:27:22;5.40;99.90
30063;DHT22;16889;67.864;24.990;2022-09-01T04:32:11;5.50;99.90
30063;DHT22;16889;67.864;24.990;2022-09-01T04:36:57;5.60;99.90
30063;DHT22;16889;67.864;24.990;2022-09-01T04:41:44;5.60;99.90
30063;DHT22;16889;67.864;24.990;2022-09-01T04:46:33;5.50;99.90
30063;DHT22;16889;67.864;24.990;2022-09-01T04:51:20;5.40;99.90
30063;DHT22;16889;67.864;24.990;2022-09-01T04:56:08;5.40;99.90
30063;DHT22;16889;67.864;24.990;2022-09-01T05:00:54;5.60;99.90
30063;DHT22;16889;67.864;24.990;2022-09-01T05:05:43;5.80;99.90
30063;DHT22;16889;67.864;24.990;2022-09-01T05:10:29;5.90;99.90
30063;DHT22;16889;67.864;24.990;2022-09-01T05:15:16;5.80;99.90
30063;DHT22;16889;67.864;24.990;2022-09-01T05:20:03;5.70;99.90
30063;DHT22;16889;67.864;24.990;2022-09-01T05:24:49;5.70;99.90
30063;DHT22;16889;67.864;24.990;2022-09-01T05:29:36;5.70;99.90
30063;DHT22;16889;67.864;24.990;2022-09-01T05:34:24;5.80;99.90
30063;DHT22;16889;67.864;24.990;2022-09-01T05:39:14;5.80;99.90
30063;DHT22;16889;67.864;24.990;2022-09-01T05:44:02;6.10;99.90
30063;DHT22;16889;67.864;24.990;2022-09-01T05:48:54;6.30;99.90
30063;DHT22;16889;67.864;24.990;2022-09-01T05:53:40;6.40;99.90
30063;DHT22;16889;67.864;24.990;2022-09-01T05:58:27;6.30;99.90
30063;DHT22;16889;67.864;24.990;2022-09-01T06:03:14;6.30;99.90
30063;DHT22;16889;67.864;24.990;2022-09-01T06:08:03;6.30;99.90
30063;DHT22;16889;67.864;24.990;2022-09-01T06:12:50;6.30;99.90
30063;DHT22;16889;67.864;24.990;2022-09-01T06:17:37;6.20;99.90
30063;DHT22;16889;67.864;24.990;2022-09-01T06:22:27;6.30;99.90
30063;DHT22;16889;67.864;24.990;2022-09-01T06:27:14;6.40;99.90
30063;DHT22;16889;67.864;24.990;2022-09-01T06:32:03;6.50;99.90
30063;DHT22;16889;67.864;24.990;2022-09-01T06:36:53;6.60;99.90
30063;DHT22;16889;67.864;24.990;2022-09-01T06:41:38;6.60;99.90
30063;DHT22;16889;67.864;24.990;2022-09-01T06:46:24;6.70;99.90
30063;DHT22;16889;67.864;24.990;2022-09-01T06:51:18;6.80;99.90
30063;DHT22;16889;67.864;24.990;2022-09-01T06:56:05;7.00;99.90
30063;DHT22;16889;67.864;24.990;2022-09-01T07:00:51;7.20;99.90
30063;DHT22;16889;67.864;24.990;2022-09-01T07:05:42;7.20;99.90
30063;DHT22;16889;67.864;24.990;2022-09-01T07:10:28;7.10;99.90
30063;DHT22;16889;67.864;24.990;2022-09-01T07:15:15;7.10;99.90
30063;DHT22;16889;67.864;24.990;2022-09-01T07:20:03;7.10;99.90
30063;DHT22;16889;67.864;24.990;2022-09-01T07:24:49;7.00;99.90
30063;DHT22;16889;67.864;24.990;2022-09-01T07:29:39;6.90;99.90
30063;DHT22;16889;67.864;24.990;2022-09-01T07:34:26;7.00;99.90
30063;DHT22;16889;67.864;24.990;2022-09-01T07:39:13;7.30;99.90
30063;DHT22;16889;67.864;24.990;2022-09-01T07:43:59;7.90;99.90
30063;DHT22;16889;67.864;24.990;2022-09-01T07:48:48;8.20;99.90
30063;DHT22;16889;67.864;24.990;2022-09-01T07:53:36;8.30;99.90
30063;DHT22;16889;67.864;24.990;2022-09-01T07:58:27;8.20;99.90
30063;DHT22;16889;67.864;24.990;2022-09-01T08:03:14;8.30;99.90
30063;DHT22;16889;67.864;24.990;2022-09-01T08:08:01;8.30;99.90
30063;DHT22;16889;67.864;24.990;2022-09-01T08:12:47;8.20;99.90
30063;DHT22;16889;67.864;24.990;2022-09-01T08:17:35;8.00;99.90
30063;DHT22;16889;67.864;24.990;2022-09-01T08:22:21;8.20;99.90
30063;DHT22;16889;67.864;24.990;2022-09-01T08:27:09;8.40;99.90
30063;DHT22;16889;67.864;24.990;2022-09-01T08:31:55;8.40;99.90
30063;DHT22;16889;67.864;24.990;2022-09-01T08:36:43;8.50;99.90
30063;DHT22;16889;67.864;24.990;2022-09-01T08:46:31;8.40;99.90
30063;DHT22;16889;67.864;24.990;2022-09-01T08:51:29;8.30;99.90
30063;DHT22;16889;67.864;24.990;2022-09-01T08:56:18;8.40;99.90
30063;DHT22;16889;67.864;24.990;2022-09-01T09:01:15;8.80;99.90
30063;DHT22;16889;67.864;24.990;2022-09-01T09:06:20;9.10;99.90
30063;DHT22;16889;67.864;24.990;2022-09-01T09:16:22;9.90;99.90
30063;DHT22;16889;67.864;24.990;2022-09-01T09:21:34;10.10;99.90
30063;DHT22;16889;67.864;24.990;2022-09-01T09:26:21;10.00;99.90
30063;DHT22;16889;67.864;24.990;2022-09-01T09:36:20;9.80;99.90
30063;DHT22;16889;67.864;24.990;2022-09-01T09:41:20;9.70;99.90
30063;DHT22;16889;67.864;24.990;2022-09-01T09:46:40;10.10;99.90
30063;DHT22;16889;67.864;24.990;2022-09-01T09:51:27;10.30;99.90
30063;DHT22;16889;67.864;24.990;2022-09-01T09:56:22;10.00;99.90
30063;DHT22;16889;67.864;24.990;2022-09-01T10:06:00;8.80;99.90
30063;DHT22;16889;67.864;24.990;2022-09-01T10:10:49;8.20;99.90
30063;DHT22;16889;67.864;24.990;2022-09-01T10:15:35;8.10;99.90
30063;DHT22;16889;67.864;24.990;2022-09-01T10:20:25;9.30;99.90
30063;DHT22;16889;67.864;24.990;2022-09-01T10:25:19;12.00;99.90
30063;DHT22;16889;67.864;24.990;2022-09-01T10:30:18;13.50;99.90
30063;DHT22;16889;67.864;24.990;2022-09-01T10:35:09;13.90;96.50
30063;DHT22;16889;67.864;24.990;2022-09-01T10:40:17;11.10;99.90
30063;DHT22;16889;67.864;24.990;2022-09-01T10:45:04;9.30;99.90
30063;DHT22;16889;67.864;24.990;2022-09-01T10:59:27;10.40;99.90
30063;DHT22;16889;67.864;24.990;2022-09-01T11:04:16;10.90;99.90
30063;DHT22;16889;67.864;24.990;2022-09-01T11:09:04;11.10;99.90
30063;DHT22;16889;67.864;24.990;2022-09-01T11:13:56;10.90;99.90
30063;DHT22;16889;67.864;24.990;2022-09-01T11:18:48;10.90;99.90
30063;DHT22;16889;67.864;24.990;2022-09-01T11:23:36;9.80;99.90
30063;DHT22;16889;67.864;24.990;2022-09-01T11:38:55;9.50;99.90
30063;DHT22;16889;67.864;24.990;2022-09-01T11:43:38;9.60;99.90
30063;DHT22;16889;67.864;24.990;2022-09-01T11:48:27;9.90;99.90
30063;DHT22;16889;67.864;24.990;2022-09-01T11:53:20;10.50;99.90
30063;DHT22;16889;67.864;24.990;2022-09-01T11:58:32;10.30;99.90
30063;DHT22;16889;67.864;24.990;2022-09-01T12:08:16;8.90;99.90
30063;DHT22;16889;67.864;24.990;2022-09-01T12:13:24;9.00;99.90
30063;DHT22;16889;67.864;24.990;2022-09-01T12:18:23;9.40;99.90
30063;DHT22;16889;67.864;24.990;2022-09-01T12:23:25;9.90;99.90
30063;DHT22;16889;67.864;24.990;2022-09-01T12:28:11;10.40;99.90
30063;DHT22;16889;67.864;24.990;2022-09-01T12:32:58;10.90;99.90
30063;DHT22;16889;67.864;24.990;2022-09-01T12:37:44;11.00;99.30
30063;DHT22;16889;67.864;24.990;2022-09-01T12:42:33;10.40;99.90
30063;DHT22;16889;67.864;24.990;2022-09-01T12:52:34;10.40;99.90
30063;DHT22;16889;67.864;24.990;2022-09-01T12:57:27;10.50;99.90
30063;DHT22;16889;67.864;24.990;2022-09-01T13:02:39;10.80;99.90
30063;DHT22;16889;67.864;24.990;2022-09-01T13:07:25;10.90;99.90
30063;DHT22;16889;67.864;24.990;2022-09-01T13:12:19;10.60;99.90
30063;DHT22;16889;67.864;24.990;2022-09-01T13:17:05;10.60;99.90
30063;DHT22;16889;67.864;24.990;2022-09-01T13:21:51;10.90;99.90
30063;DHT22;16889;67.864;24.990;2022-09-01T13:26:37;10.90;99.90
30063;DHT22;16889;67.864;24.990;2022-09-01T13:31:23;11.00;99.90
30063;DHT22;16889;67.864;24.990;2022-09-01T13:36:10;11.10;99.90
30063;DHT22;16889;67.864;24.990;2022-09-01T13:40:56;10.80;99.90
30063;DHT22;16889;67.864;24.990;2022-09-01T13:45:42;11.00;99.90
30063;DHT22;16889;67.864;24.990;2022-09-01T13:50:28;11.60;99.90
30063;DHT22;16889;67.864;24.990;2022-09-01T13:55:18;11.50;98.50
30063;DHT22;16889;67.864;24.990;2022-09-01T14:00:07;11.20;99.50
30063;DHT22;16889;67.864;24.990;2022-09-01T14:04:57;10.70;99.70
30063;DHT22;16889;67.864;24.990;2022-09-01T14:09:44;10.20;99.90
30063;DHT22;16889;67.864;24.990;2022-09-01T14:14:33;9.90;99.90
30063;DHT22;16889;67.864;24.990;2022-09-01T14:19:19;9.60;99.00
30063;DHT22;16889;67.864;24.990;2022-09-01T14:24:05;9.90;99.40
30063;DHT22;16889;67.864;24.990;2022-09-01T14:28:51;10.30;99.30
30063;DHT22;16889;67.864;24.990;2022-09-01T14:33:38;10.60;98.50
30063;DHT22;16889;67.864;24.990;2022-09-01T14:38:25;10.80;97.50
30063;DHT22;16889;67.864;24.990;2022-09-01T14:43:11;10.80;96.90
30063;DHT22;16889;67.864;24.990;2022-09-01T14:47:59;11.00;97.60
30063;DHT22;16889;67.864;24.990;2022-09-01T14:52:46;11.00;96.70
30063;DHT22;16889;67.864;24.990;2022-09-01T14:57:32;11.20;95.00
30063;DHT22;16889;67.864;24.990;2022-09-01T15:02:18;11.30;94.40
30063;DHT22;16889;67.864;24.990;2022-09-01T15:07:04;11.20;95.50
30063;DHT22;16889;67.864;24.990;2022-09-01T15:11:51;11.00;94.90
30063;DHT22;16889;67.864;24.990;2022-09-01T15:16:37;10.90;94.80
30063;DHT22;16889;67.864;24.990;2022-09-01T15:21:29;10.80;94.80
30063;DHT22;16889;67.864;24.990;2022-09-01T15:26:18;10.90;95.60
30063;DHT22;16889;67.864;24.990;2022-09-01T15:31:05;10.70;96.20
30063;DHT22;16889;67.864;24.990;2022-09-01T15:35:51;10.60;96.10
30063;DHT22;16889;67.864;24.990;2022-09-01T15:40:41;10.60;97.80
30063;DHT22;16889;67.864;24.990;2022-09-01T15:45:28;10.50;98.00
30063;DHT22;16889;67.864;24.990;2022-09-01T15:50:17;10.50;98.20
30063;DHT22;16889;67.864;24.990;2022-09-01T15:55:03;10.50;99.10
30063;DHT22;16889;67.864;24.990;2022-09-01T15:59:50;10.60;99.70
30063;DHT22;16889;67.864;24.990;2022-09-01T16:04:36;10.40;97.80
30063;DHT22;16889;67.864;24.990;2022-09-01T16:09:22;10.20;98.50
30063;DHT22;16889;67.864;24.990;2022-09-01T16:14:08;10.10;99.60
30063;DHT22;16889;67.864;24.990;2022-09-01T16:19:05;10.00;99.90
30063;DHT22;16889;67.864;24.990;2022-09-01T16:23:55;9.90;99.90
30063;DHT22;16889;67.864;24.990;2022-09-01T16:28:47;9.80;99.90
30063;DHT22;16889;67.864;24.990;2022-09-01T16:33:33;9.70;99.90
30063;DHT22;16889;67.864;24.990;2022-09-01T16:38:36;9.50;99.90
30063;DHT22;16889;67.864;24.990;2022-09-01T16:43:47;9.40;99.90
30063;DHT22;16889;67.864;24.990;2022-09-01T16:54:03;9.20;99.90
30063;DHT22;16889;67.864;24.990;2022-09-01T16:59:21;9.10;99.90
30063;DHT22;16889;67.864;24.990;2022-09-01T17:09:37;8.70;99.90
30063;DHT22;16889;67.864;24.990;2022-09-01T17:14:46;8.60;99.90
30063;DHT22;16889;67.864;24.990;2022-09-01T17:19:36;8.50;99.90
30063;DHT22;16889;67.864;24.990;2022-09-01T17:29:17;8.20;99.90
30063;DHT22;16889;67.864;24.990;2022-09-01T17:44:34;7.70;99.90
30063;DHT22;16889;67.864;24.990;2022-09-01T17:49:52;7.70;99.90
30063;DHT22;16889;67.864;24.990;2022-09-01T17:55:39;7.50;99.90
30063;DHT22;16889;67.864;24.990;2022-09-01T18:05:17;7.10;99.90
30063;DHT22;16889;67.864;24.990;2022-09-01T18:10:10;7.00;99.90
30063;DHT22;16889;67.864;24.990;2022-09-01T18:15:12;7.00;99.90
30063;DHT22;16889;67.864;24.990;2022-09-01T18:20:11;6.90;99.90
30063;DHT22;16889;67.864;24.990;2022-09-01T18:25:06;6.80;99.90
30063;DHT22;16889;67.864;24.990;2022-09-01T18:29:53;6.80;99.90
30063;DHT22;16889;67.864;24.990;2022-09-01T18:35:10;6.80;99.90
30063;DHT22;16889;67.864;24.990;2022-09-01T18:40:23;6.90;99.90
30063;DHT22;16889;67.864;24.990;2022-09-01T18:50:14;7.00;99.90
30063;DHT22;16889;67.864;24.990;2022-09-01T19:00:18;6.80;99.90
30063;DHT22;16889;67.864;24.990;2022-09-01T19:05:52;6.70;99.90
30063;DHT22;16889;67.864;24.990;2022-09-01T19:10:36;6.50;99.90
30063;DHT22;16889;67.864;24.990;2022-09-01T19:15:36;6.50;99.90
30063;DHT22;16889;67.864;24.990;2022-09-01T19:25:33;6.40;99.90
30063;DHT22;16889;67.864;24.990;2022-09-01T19:30:22;6.30;99.90
30063;DHT22;16889;67.864;24.990;2022-09-01T19:35:12;6.20;99.90
30063;DHT22;16889;67.864;24.990;2022-09-01T19:39:59;6.10;99.90
30063;DHT22;16889;67.864;24.990;2022-09-01T19:45:06;6.00;99.90
30063;DHT22;16889;67.864;24.990;2022-09-01T19:50:09;5.80;99.90
30063;DHT22;16889;67.864;24.990;2022-09-01T19:55:13;5.80;99.90
30063;DHT22;16889;67.864;24.990;2022-09-01T20:05:03;5.70;99.90
30063;DHT22;16889;67.864;24.990;2022-09-01T20:09:56;5.60;99.90
30063;DHT22;16889;67.864;24.990;2022-09-01T20:19:59;5.50;99.90
30063;DHT22;16889;67.864;24.990;2022-09-01T20:24:46;5.50;99.90
30063;DHT22;16889;67.864;24.990;2022-09-01T20:34:49;5.50;99.90
30063;DHT22;16889;67.864;24.990;2022-09-01T20:39:56;5.60;99.90
30063;DHT22;16889;67.864;24.990;2022-09-01T20:44:51;5.70;99.90
30063;DHT22;16889;67.864;24.990;2022-09-01T20:49:39;5.70;99.90
30063;DHT22;16889;67.864;24.990;2022-09-01T20:54:39;5.80;99.90
30063;DHT22;16889;67.864;24.990;2022-09-01T20:59:49;5.90;99.90
30063;DHT22;16889;67.864;24.990;2022-09-01T21:04:51;6.00;99.90
30063;DHT22;16889;67.864;24.990;2022-09-01T21:25:06;6.30;99.90
30063;DHT22;16889;67.864;24.990;2022-09-01T21:34:38;6.30;99.90
30063;DHT22;16889;67.864;24.990;2022-09-01T21:39:24;6.30;99.90
30063;DHT22;16889;67.864;24.990;2022-09-01T21:44:11;6.40;99.90
30063;DHT22;16889;67.864;24.990;2022-09-01T21:48:57;6.40;99.90
30063;DHT22;16889;67.864;24.990;2022-09-01T21:53:43;6.40;99.90
30063;DHT22;16889;67.864;24.990;2022-09-01T21:58:29;6.50;99.90
30063;DHT22;16889;67.864;24.990;2022-09-01T22:03:15;6.40;99.90
30063;DHT22;16889;67.864;24.990;2022-09-01T22:08:01;6.40;99.90
30063;DHT22;16889;67.864;24.990;2022-09-01T22:12:48;6.30;99.90
30063;DHT22;16889;67.864;24.990;2022-09-01T22:17:34;6.20;99.90
30063;DHT22;16889;67.864;24.990;2022-09-01T22:22:20;6.20;99.90
30063;DHT22;16889;67.864;24.990;2022-09-01T22:27:06;6.20;99.90
30063;DHT22;16889;67.864;24.990;2022-09-01T22:31:52;6.20;99.90
30063;DHT22;16889;67.864;24.990;2022-09-01T22:36:45;6.20;99.90
30063;DHT22;16889;67.864;24.990;2022-09-01T22:41:32;6.30;99.90
30063;DHT22;16889;67.864;24.990;2022-09-01T22:46:19;6.30;99.90
30063;DHT22;16889;67.864;24.990;2022-09-01T22:51:07;6.40;99.90
30063;DHT22;16889;67.864;24.990;2022-09-01T22:55:54;6.40;99.90
30063;DHT22;16889;67.864;24.990;2022-09-01T23:00:46;6.40;99.90
30063;DHT22;16889;67.864;24.990;2022-09-01T23:05:32;6.40;99.90
30063;DHT22;16889;67.864;24.990;2022-09-01T23:10:18;6.40;99.90
30063;DHT22;16889;67.864;24.990;2022-09-01T23:15:05;6.40;99.90
30063;DHT22;16889;67.864;24.990;2022-09-01T23:19:51;6.40;99.90
30063;DHT22;16889;67.864;24.990;2022-09-01T23:24:37;6.30;99.90
30063;DHT22;16889;67.864;24.990;2022-09-01T23:29:23;6.40;99.90
30063;DHT22;16889;67.864;24.990;2022-09-01T23:34:10;6.40;99.90
30063;DHT22;16889;67.864;24.990;2022-09-01T23:38:58;6.30;99.90
30063;DHT22;16889;67.864;24.990;2022-09-01T23:43:44;6.30;99.90
30063;DHT22;16889;67.864;24.990;2022-09-01T23:48:30;6.30;99.90
30063;DHT22;16889;67.864;24.990;2022-09-01T23:53:17;6.30;99.90
30063;DHT22;16889;67.864;24.990;2022-09-01T23:58:04;6.30;99.90
